createdAt,value
2022-12-01T00:01:59.201Z,98302.25
2022-12-01T00:05:01.348Z,98302.38
2022-12-01T00:08:05.267Z,98300.84
2022-12-01T00:11:14.830Z,98300.09
2022-12-01T00:14:16.887Z,98308.97
2022-12-01T00:17:18.947Z,98308.28
2022-12-01T00:20:21.267Z,98305.88
2022-12-01T00:23:23.804Z,98307.00
2022-12-01T00:26:27.331Z,98307.22
2022-12-01T00:29:29.412Z,98303.91
2022-12-01T00:32:31.710Z,98307.50
2022-12-01T00:35:33.803Z,98300.59
2022-12-01T00:38:36.083Z,98304.91
2022-12-01T00:41:38.114Z,98293.59
2022-12-01T00:44:40.255Z,98290.94
2022-12-01T00:47:42.302Z,98295.19
2022-12-01T00:50:44.971Z,98291.63
2022-12-01T00:53:47.022Z,98299.31
2022-12-01T00:56:49.011Z,98302.72
2022-12-01T00:59:51.108Z,98296.81
2022-12-01T01:02:53.277Z,98302.00
2022-12-01T01:05:55.479Z,98300.22
2022-12-01T01:08:57.637Z,98296.63
2022-12-01T01:11:59.757Z,98300.00
2022-12-01T01:15:02.908Z,98301.66
2022-12-01T01:18:05.968Z,98300.66
2022-12-01T01:21:11.817Z,98299.72
2022-12-01T01:24:13.935Z,98298.72
2022-12-01T01:27:15.989Z,98300.34
2022-12-01T01:30:18.693Z,98299.41
2022-12-01T01:33:20.698Z,98292.44
2022-12-01T01:36:23.482Z,98284.56
2022-12-01T01:39:25.508Z,98291.44
2022-12-01T01:42:27.571Z,98280.16
2022-12-01T01:45:30.125Z,98283.59
2022-12-01T01:48:34.375Z,98290.44
2022-12-01T01:51:45.301Z,98284.38
2022-12-01T01:54:51.341Z,98284.31
2022-12-01T01:57:53.489Z,98281.72
2022-12-01T02:00:55.667Z,98285.22
2022-12-01T02:03:58.765Z,98293.78
2022-12-01T02:07:01.028Z,98286.84
2022-12-01T02:10:06.023Z,98285.06
2022-12-01T02:13:30.277Z,98284.13
2022-12-01T02:17:02.235Z,98288.47
2022-12-01T02:20:16.620Z,98295.38
2022-12-01T02:23:39.985Z,98300.56
2022-12-01T02:26:51.126Z,98297.97
2022-12-01T02:29:56.277Z,98299.75
2022-12-01T02:33:09.448Z,98299.91
2022-12-01T02:36:28.506Z,98293.91
2022-12-01T02:39:30.659Z,98294.78
2022-12-01T02:42:52.381Z,98292.19
2022-12-01T02:46:00.936Z,98282.69
2022-12-01T02:49:10.119Z,98289.69
2022-12-01T02:52:14.300Z,98288.19
2022-12-01T02:55:16.385Z,98289.09
2022-12-01T02:58:19.028Z,98292.56
2022-12-01T03:01:32.995Z,98283.16
2022-12-01T03:04:39.447Z,98283.25
2022-12-01T03:08:01.970Z,98279.03
2022-12-01T03:11:04.248Z,98272.25
2022-12-01T03:14:26.022Z,98276.63
2022-12-01T03:18:11.483Z,98274.97
2022-12-01T03:21:25.740Z,98284.53
2022-12-01T03:24:33.143Z,98282.94
2022-12-01T03:27:41.785Z,98276.22
2022-12-01T03:30:57.366Z,98279.81
2022-12-01T03:34:05.181Z,98280.78
2022-12-01T03:37:18.211Z,98285.16
2022-12-01T03:40:27.385Z,98281.78
2022-12-01T03:43:35.337Z,98287.13
2022-12-01T03:46:50.349Z,98284.59
2022-12-01T03:49:54.149Z,98290.81
2022-12-01T03:53:21.793Z,98287.56
2022-12-01T03:56:26.677Z,98281.63
2022-12-01T03:59:30.295Z,98286.91
2022-12-01T04:02:32.700Z,98283.56
2022-12-01T04:05:35.486Z,98284.53
2022-12-01T04:08:37.995Z,98283.69
2022-12-01T04:11:58.637Z,98287.94
2022-12-01T04:15:10.380Z,98284.50
2022-12-01T04:18:12.426Z,98285.50
2022-12-01T04:21:14.431Z,98291.53
2022-12-01T04:24:16.535Z,98287.19
2022-12-01T04:27:19.459Z,98282.81
2022-12-01T04:30:21.488Z,98281.88
2022-12-01T04:33:23.554Z,98274.03
2022-12-01T04:36:26.980Z,98278.31
2022-12-01T04:39:29.046Z,98276.53
2022-12-01T04:42:31.163Z,98275.69
2022-12-01T04:45:33.181Z,98278.22
2022-12-01T04:48:36.677Z,98280.81
2022-12-01T04:51:38.865Z,98284.19
2022-12-01T04:54:40.893Z,98286.66
2022-12-01T04:57:42.939Z,98289.06
2022-12-01T05:00:45.256Z,98285.59
2022-12-01T05:03:51.673Z,98293.34
2022-12-01T05:06:55.663Z,98292.44
2022-12-01T05:09:58.342Z,98290.63
2022-12-01T05:13:00.668Z,98291.50
2022-12-01T05:16:08.374Z,98286.38
2022-12-01T05:19:29.234Z,98292.47
2022-12-01T05:22:57.217Z,98289.88
2022-12-01T05:25:53.545Z,98294.09
2022-12-01T05:28:55.703Z,98305.34
2022-12-01T05:31:57.768Z,98309.66
2022-12-01T05:34:59.867Z,98307.06
2022-12-01T05:38:07.501Z,98307.88
2022-12-01T05:41:11.160Z,98315.56
2022-12-01T05:44:13.193Z,98304.19
2022-12-01T05:47:15.256Z,98307.59
2022-12-01T05:50:17.420Z,98314.47
2022-12-01T05:53:20.222Z,98308.34
2022-12-01T05:56:22.250Z,98311.69
2022-12-01T05:59:24.436Z,98313.34
2022-12-01T06:02:29.500Z,98318.50
2022-12-01T06:05:32.079Z,98321.88
2022-12-01T06:08:34.119Z,98324.41
2022-12-01T06:11:36.263Z,98314.94
2022-12-01T06:14:38.457Z,98315.84
2022-12-01T06:17:40.954Z,98317.56
2022-12-01T06:20:43.004Z,98311.56
2022-12-01T06:23:45.122Z,98318.47
2022-12-01T06:26:47.290Z,98314.97
2022-12-01T06:29:49.993Z,98320.88
2022-12-01T06:32:52.502Z,98319.00
2022-12-01T06:36:01.739Z,98319.75
2022-12-01T06:39:10.303Z,98321.41
2022-12-01T06:42:12.542Z,98323.94
2022-12-01T06:45:14.896Z,98320.31
2022-12-01T06:48:16.961Z,98321.91
2022-12-01T06:51:19.097Z,98320.03
2022-12-01T06:54:21.577Z,98316.41
2022-12-01T06:57:23.679Z,98316.22
2022-12-01T07:00:26.163Z,98312.66
2022-12-01T07:03:28.232Z,98322.03
2022-12-01T07:06:31.522Z,98323.50
2022-12-01T07:09:34.245Z,98316.47
2022-12-01T07:12:36.366Z,98316.38
2022-12-01T07:15:39.133Z,98314.50
2022-12-01T07:18:41.447Z,98313.63
2022-12-01T07:21:43.693Z,98329.88
2022-12-01T07:24:45.807Z,98326.31
2022-12-01T07:27:48.054Z,98336.59
2022-12-01T07:30:50.132Z,98339.94
2022-12-01T07:33:52.805Z,98345.03
2022-12-01T07:36:54.860Z,98357.13
2022-12-01T07:39:56.925Z,98354.44
2022-12-01T07:42:58.954Z,98359.59
2022-12-01T07:46:22.591Z,98358.66
2022-12-01T07:49:25.852Z,98360.28
2022-12-01T07:52:28.019Z,98361.00
2022-12-01T07:55:30.115Z,98369.44
2022-12-01T07:58:32.763Z,98371.88
2022-12-01T08:01:34.851Z,98376.78
2022-12-01T08:04:37.251Z,98372.91
2022-12-01T08:07:39.483Z,98373.25
2022-12-01T08:10:41.610Z,98371.63
2022-12-01T08:13:44.179Z,98369.06
2022-12-01T08:16:48.110Z,98367.63
2022-12-01T08:19:50.582Z,98372.59
2022-12-01T08:22:53.015Z,98370.66
2022-12-01T08:25:55.274Z,98372.53
2022-12-01T08:28:58.167Z,98373.03
2022-12-01T08:32:00.234Z,98370.16
2022-12-01T08:35:02.398Z,98364.94
2022-12-01T08:38:05.159Z,98360.78
2022-12-01T08:41:09.087Z,98358.34
2022-12-01T08:44:11.488Z,98364.34
2022-12-01T08:47:18.513Z,98373.81
2022-12-01T08:50:20.825Z,98372.78
2022-12-01T08:53:22.910Z,98374.25
2022-12-01T08:56:26.499Z,98369.69
2022-12-01T08:59:28.537Z,98366.28
2022-12-01T09:02:30.890Z,98369.63
2022-12-01T09:05:32.960Z,98371.34
2022-12-01T09:08:36.994Z,98356.16
2022-12-01T09:11:40.062Z,98360.78
2022-12-01T09:14:48.403Z,98376.66
2022-12-01T09:17:50.519Z,98374.25
2022-12-01T09:20:52.907Z,98375.09
2022-12-01T09:23:55.105Z,98367.50
2022-12-01T09:26:58.665Z,98360.47
2022-12-01T09:30:00.696Z,98348.72
2022-12-01T09:33:02.822Z,98358.47
2022-12-01T09:36:07.854Z,98350.09
2022-12-01T09:39:14.082Z,98348.28
2022-12-01T09:42:18.798Z,98345.47
2022-12-01T09:45:28.200Z,98345.56
2022-12-01T09:48:42.909Z,98348.28
2022-12-01T09:51:45.341Z,98341.75
2022-12-01T09:54:48.309Z,98331.50
2022-12-01T09:57:54.464Z,98334.16
2022-12-01T10:00:57.852Z,98336.19
2022-12-01T10:04:08.346Z,98333.97
2022-12-01T10:07:31.845Z,98333.84
2022-12-01T10:10:38.481Z,98326.53
2022-12-01T10:13:43.653Z,98323.59
2022-12-01T10:17:03.802Z,98323.94
2022-12-01T10:20:33.592Z,98322.88
2022-12-01T10:24:04.515Z,98318.66
2022-12-01T10:27:38.635Z,98318.00
2022-12-01T10:31:12.727Z,98312.84
2022-12-01T10:34:18.346Z,98311.03
2022-12-01T10:37:25.312Z,98307.63
2022-12-01T10:40:28.322Z,98313.31
2022-12-01T10:43:39.558Z,98304.94
2022-12-01T10:46:52.987Z,98300.56
2022-12-01T10:49:56.456Z,98301.00
2022-12-01T10:52:58.492Z,98303.06
2022-12-01T10:56:12.293Z,98303.41
2022-12-01T10:59:25.805Z,98298.66
2022-12-01T11:02:29.844Z,98289.63
2022-12-01T11:05:38.185Z,98293.56
2022-12-01T11:08:45.638Z,98294.34
2022-12-01T11:11:56.183Z,98288.28
2022-12-01T11:14:59.247Z,98287.50
2022-12-01T11:18:06.979Z,98287.53
2022-12-01T11:21:35.194Z,98290.94
2022-12-01T11:24:42.505Z,98279.94
2022-12-01T11:27:54.395Z,98277.69
2022-12-01T11:31:02.795Z,98280.44
2022-12-01T11:34:05.414Z,98292.38
2022-12-01T11:37:15.968Z,98293.13
2022-12-01T11:40:29.719Z,98283.84
2022-12-01T11:43:31.789Z,98283.84
2022-12-01T11:46:45.984Z,98287.38
2022-12-01T11:49:55.185Z,98282.72
2022-12-01T11:52:57.323Z,98277.06
2022-12-01T11:56:18.993Z,98281.53
2022-12-01T11:59:26.814Z,98273.38
2022-12-01T12:03:19.534Z,98274.63
2022-12-01T12:06:43.939Z,98269.81
2022-12-01T12:10:04.365Z,98271.03
2022-12-01T12:13:15.735Z,98273.97
2022-12-01T12:16:25.333Z,98266.00
2022-12-01T12:20:07.138Z,98270.28
2022-12-01T12:23:45.409Z,98270.06
2022-12-01T12:27:19.923Z,98266.22
2022-12-01T12:30:26.718Z,98265.00
2022-12-01T12:34:10.081Z,98265.00
2022-12-01T12:37:31.595Z,98260.38
2022-12-01T12:41:09.576Z,98261.66
2022-12-01T12:44:41.525Z,98261.03
2022-12-01T12:47:57.559Z,98267.31
2022-12-01T12:51:13.445Z,98265.25
2022-12-01T12:54:44.800Z,98277.41
2022-12-01T12:57:55.543Z,98269.34
2022-12-01T13:01:07.805Z,98269.72
2022-12-01T13:04:16.805Z,98272.09
2022-12-01T13:07:28.212Z,98263.03
2022-12-01T13:10:50.895Z,98264.22
2022-12-01T13:14:20.062Z,98260.66
2022-12-01T13:17:37.274Z,98257.84
2022-12-01T13:20:40.502Z,98253.25
2022-12-01T13:23:44.216Z,98249.28
2022-12-01T13:26:53.622Z,98259.69
2022-12-01T13:29:56.515Z,98260.19
2022-12-01T13:33:04.174Z,98260.19
2022-12-01T13:36:44.991Z,98259.69
2022-12-01T13:39:39.423Z,98258.59
2022-12-01T13:42:41.793Z,98269.09
2022-12-01T13:45:43.938Z,98271.19
2022-12-01T13:48:46.006Z,98258.19
2022-12-01T13:52:15.724Z,98266.06
2022-12-01T13:55:27.169Z,98264.66
2022-12-01T13:58:35.280Z,98262.34
2022-12-01T14:01:44.311Z,98254.59
2022-12-01T14:04:46.544Z,98259.19
2022-12-01T14:07:51.048Z,98258.34
2022-12-01T14:10:57.236Z,98257.50
2022-12-01T14:14:03.786Z,98268.84
2022-12-01T14:17:06.748Z,98260.97
2022-12-01T14:20:14.926Z,98259.47
2022-12-01T14:23:29.271Z,98260.69
2022-12-01T14:26:31.919Z,98262.81
2022-12-01T14:29:44.645Z,98261.97
2022-12-01T14:32:46.758Z,98264.63
2022-12-01T14:35:48.926Z,98261.28
2022-12-01T14:38:55.454Z,98256.28
2022-12-01T14:42:42.308Z,98268.56
2022-12-01T14:46:04.793Z,98260.28
2022-12-01T14:49:13.111Z,98257.97
2022-12-01T14:52:34.923Z,98265.94
2022-12-01T14:55:43.520Z,98268.66
2022-12-01T14:59:00.087Z,98269.72
2022-12-01T15:02:09.751Z,98272.41
2022-12-01T15:05:15.913Z,98274.22
2022-12-01T15:11:53.687Z,98279.53
2022-12-01T15:14:55.896Z,98278.69
2022-12-01T15:18:01.875Z,98283.88
2022-12-01T15:21:10.080Z,98274.41
2022-12-01T15:24:23.904Z,98272.88
2022-12-01T15:27:31.719Z,98279.13
2022-12-01T15:30:33.934Z,98269.72
2022-12-01T15:33:39.207Z,98270.75
2022-12-01T15:36:41.944Z,98270.88
2022-12-01T15:39:47.548Z,98273.56
2022-12-01T15:43:16.907Z,98277.97
2022-12-01T15:46:19.778Z,98279.97
2022-12-01T15:49:33.448Z,98278.31
2022-12-01T15:52:45.158Z,98288.00
2022-12-01T15:55:52.939Z,98290.78
2022-12-01T15:59:17.090Z,98289.25
2022-12-01T16:02:25.410Z,98298.09
2022-12-01T16:05:33.709Z,98293.03
2022-12-01T16:08:36.070Z,98283.63
2022-12-01T16:11:38.271Z,98295.88
2022-12-01T16:15:01.784Z,98293.47
2022-12-01T16:18:28.881Z,98301.31
2022-12-01T16:21:56.198Z,98306.56
2022-12-01T16:24:58.570Z,98297.19
2022-12-01T16:28:02.151Z,98303.47
2022-12-01T16:31:08.297Z,98301.94
2022-12-01T16:34:43.995Z,98295.19
2022-12-01T16:37:40.041Z,98297.25
2022-12-01T16:40:43.873Z,98296.66
2022-12-01T16:44:05.717Z,98297.72
2022-12-01T16:47:23.968Z,98307.41
2022-12-01T16:50:26.157Z,98307.63
2022-12-01T16:53:28.706Z,98307.06
2022-12-01T16:56:31.205Z,98301.31
2022-12-01T16:59:33.716Z,98304.97
2022-12-01T17:02:36.593Z,98298.50
2022-12-01T17:05:40.776Z,98299.69
2022-12-01T17:08:43.087Z,98297.38
2022-12-01T17:11:45.776Z,98294.06
2022-12-01T17:14:48.777Z,98300.31
2022-12-01T17:17:53.719Z,98305.78
2022-12-01T17:21:00.568Z,98306.13
2022-12-01T17:24:04.815Z,98310.72
2022-12-01T17:27:07.913Z,98319.44
2022-12-01T17:30:11.232Z,98314.53
2022-12-01T17:33:14.013Z,98320.19
2022-12-01T17:36:17.422Z,98316.97
2022-12-01T17:39:20.343Z,98320.84
2022-12-01T17:42:23.483Z,98317.75
2022-12-01T17:45:25.687Z,98311.31
2022-12-01T17:48:28.279Z,98314.16
2022-12-01T17:51:30.496Z,98308.31
2022-12-01T17:54:34.593Z,98317.88
2022-12-01T17:57:37.064Z,98321.28
2022-12-01T18:00:39.928Z,98324.91
2022-12-01T18:03:43.221Z,98318.22
2022-12-01T18:06:50.812Z,98322.78
2022-12-01T18:09:56.432Z,98321.28
2022-12-01T18:12:59.220Z,98310.22
2022-12-01T18:16:07.901Z,98306.06
2022-12-01T18:19:11.678Z,98316.41
2022-12-01T18:22:16.435Z,98313.84
2022-12-01T18:25:19.188Z,98310.31
2022-12-01T18:28:22.843Z,98312.00
2022-12-01T18:31:26.369Z,98312.00
2022-12-01T18:34:32.708Z,98319.66
2022-12-01T18:37:37.054Z,98311.00
2022-12-01T18:40:40.816Z,98322.06
2022-12-01T18:43:44.761Z,98322.84
2022-12-01T18:46:47.787Z,98324.47
2022-12-01T18:49:50.378Z,98323.59
2022-12-01T18:52:55.025Z,98318.41
2022-12-01T18:55:58.060Z,98321.84
2022-12-01T18:59:07.093Z,98319.13
2022-12-01T19:02:11.253Z,98316.47
2022-12-01T19:05:14.359Z,98322.41
2022-12-01T19:08:20.980Z,98311.97
2022-12-01T19:11:24.868Z,98315.38
2022-12-01T19:14:29.973Z,98316.22
2022-12-01T19:17:33.277Z,98317.03
2022-12-01T19:20:38.558Z,98310.13
2022-12-01T19:23:43.908Z,98306.69
2022-12-01T19:26:46.819Z,98316.16
2022-12-01T19:29:50.299Z,98317.88
2022-12-01T19:32:55.450Z,98317.72
2022-12-01T19:35:58.574Z,98322.00
2022-12-01T19:39:06.054Z,98323.66
2022-12-01T19:42:12.509Z,98327.09
2022-12-01T19:45:15.698Z,98317.50
2022-12-01T19:48:19.539Z,98320.06
2022-12-01T19:51:25.843Z,98320.06
2022-12-01T19:54:29.578Z,98320.06
2022-12-01T19:57:32.737Z,98314.06
2022-12-01T20:00:35.929Z,98323.63
2022-12-01T20:03:51.855Z,98314.19
2022-12-01T20:06:54.919Z,98316.81
2022-12-01T20:09:58.159Z,98314.25
2022-12-01T20:13:01.506Z,98316.88
2022-12-01T20:16:13.014Z,98328.09
2022-12-01T20:19:21.220Z,98309.16
2022-12-01T20:22:26.863Z,98311.81
2022-12-01T20:25:30.209Z,98317.88
2022-12-01T20:28:34.999Z,98314.44
2022-12-01T20:31:41.008Z,98311.88
2022-12-01T20:34:44.799Z,98306.78
2022-12-01T20:37:47.916Z,98308.56
2022-12-01T20:40:52.757Z,98313.69
2022-12-01T20:43:55.621Z,98305.16
2022-12-01T20:46:58.858Z,98304.28
2022-12-01T20:50:01.868Z,98314.63
2022-12-01T20:53:04.717Z,98311.19
2022-12-01T20:56:12.076Z,98317.22
2022-12-01T20:59:15.102Z,98318.94
2022-12-01T21:02:18.146Z,98321.47
2022-12-01T21:05:21.053Z,98331.78
2022-12-01T21:08:23.436Z,98324.88
2022-12-01T21:11:48.786Z,98330.88
2022-12-01T21:15:13.509Z,98325.69
2022-12-01T21:18:29.353Z,98334.38
2022-12-01T21:21:37.463Z,98330.97
2022-12-01T21:24:43.713Z,98319.81
2022-12-01T21:27:47.352Z,98322.47
2022-12-01T21:30:51.621Z,98315.56
2022-12-01T21:33:54.555Z,98315.56
2022-12-01T21:37:02.273Z,98317.31
2022-12-01T21:40:23.855Z,98313.88
2022-12-01T21:43:26.231Z,98309.59
2022-12-01T21:46:28.537Z,98319.09
2022-12-01T21:49:39.755Z,98317.38
2022-12-01T21:52:44.839Z,98320.88
2022-12-01T21:55:48.139Z,98320.91
2022-12-01T21:58:51.103Z,98313.25
2022-12-01T22:01:57.492Z,98316.81
2022-12-01T22:05:00.220Z,98311.66
2022-12-01T22:08:24.824Z,98311.69
2022-12-01T22:11:28.984Z,98305.66
2022-12-01T22:14:35.532Z,98310.81
2022-12-01T22:17:37.950Z,98312.50
2022-12-01T22:20:40.021Z,98309.06
2022-12-01T22:23:42.016Z,98309.94
2022-12-01T22:26:56.715Z,98315.09
2022-12-01T22:30:20.888Z,98306.41
2022-12-01T22:33:28.600Z,98307.31
2022-12-01T22:36:32.297Z,98301.22
2022-12-01T22:39:34.393Z,98309.09
2022-12-01T22:42:36.712Z,98302.19
2022-12-01T22:45:39.282Z,98303.03
2022-12-01T22:48:44.626Z,98301.28
2022-12-01T22:51:50.933Z,98295.25
2022-12-01T22:54:53.256Z,98297.03
2022-12-01T22:57:55.376Z,98295.34
2022-12-01T23:01:20.177Z,98295.34
2022-12-01T23:04:31.342Z,98296.22
2022-12-01T23:07:36.695Z,98286.75
2022-12-01T23:10:40.910Z,98285.00
2022-12-01T23:13:42.940Z,98287.56
2022-12-01T23:16:45.178Z,98281.50
2022-12-01T23:19:48.718Z,98275.47
2022-12-01T23:22:55.015Z,98278.88
2022-12-01T23:25:57.471Z,98279.75
2022-12-01T23:29:00.769Z,98275.44
2022-12-01T23:32:02.913Z,98269.41
2022-12-01T23:35:07.218Z,98266.91
2022-12-01T23:38:19.660Z,98267.81
2022-12-01T23:41:36.616Z,98271.22
2022-12-01T23:44:45.785Z,98261.69
2022-12-01T23:47:48.097Z,98260.81
2022-12-01T23:50:53.033Z,98259.09
2022-12-01T23:53:56.986Z,98259.06
2022-12-01T23:57:03.185Z,98257.31
